Latest Weather Observations for Lismore Airport

IDN60801

Issued at 6:03 am EST Friday 29 May 2015 (issued every 30 minutes, with the page automatically refreshed every 10 minutes)

About weather observations | Map of weather stations | Latest weather observations for NSW | Other Formats
Station Details ID: 058214 Name: LISMORE AIRPORT AWS Lat: -28.83 Lon: 153.26 Height: 9.21 m
Data from the previous 72 hours. | See also: Recent months for locations in New South Wales
Date/Time
EST
Temp
°C
App
Temp
°C
Dew
Point
Rel
Hum
%
Delta-T
°C
Wind Press
QNH
hPa
Press
MSL
hPa
Rain
since 9 am
mm
Dir
 
Spd
km/h
Gust
km/h
Spd
kts
Gust
kts
29/06:00am 11.3 10.0 11.3 100 0.0 N 9 9 5 5 1022.6 1022.6 0.2
29/05:30am 11.7 10.9 11.7 100 0.0 N 7 9 4 5 1022.6 1022.6 0.2
29/05:00am 12.2 11.2 12.2 100 0.0 N 9 11 5 6 1022.5 1022.5 0.2
29/04:30am 12.3 10.9 12.3 100 0.0 N 11 13 6 7 1022.3 1022.3 0.2
29/04:08am 12.2 10.8 12.2 100 0.0 N 11 13 6 7 1022.3 1022.3 0.2
29/04:07am 12.3 10.9 12.3 100 0.0 N 11 13 6 7 1022.4 1022.4 0.2
29/04:00am 12.3 10.9 12.3 100 0.0 N 11 13 6 7 1022.4 1022.4 0.2
29/03:30am 12.3 11.3 12.3 100 0.0 N 9 11 5 6 1022.1 1022.1 0.2
29/03:18am 12.6 11.3 12.6 100 0.0 N 11 13 6 7 1022.5 1022.5 0.2
29/03:00am 12.5 11.6 12.5 100 0.0 NNW 9 11 5 6 1022.5 1022.5 0.2
29/02:42am 12.4 11.1 12.4 100 0.0 N 11 13 6 7 1022.5 1022.5 0.2
29/02:30am 12.4 11.1 12.4 100 0.0 N 11 11 6 6 1022.5 1022.5 0.2
29/02:22am 12.4 11.4 12.4 100 0.0 N 9 11 5 6 1022.6 1022.6 0.2
29/02:04am 12.7 11.8 12.7 100 0.0 N 9 11 5 6 1022.8 1022.8 0.2
29/02:00am 12.6 11.7 12.6 100 0.0 N 9 11 5 6 1022.8 1022.8 0.2
29/01:54am 12.5 11.6 12.5 100 0.0 N 9 9 5 5 1022.9 1022.9 0.2
29/01:30am 12.5 11.2 12.5 100 0.0 N 11 13 6 7 1023.1 1023.1 0.2
29/01:17am 12.5 11.6 12.5 100 0.0 N 9 11 5 6 1023.1 1023.1 0.2
29/01:03am 12.5 11.2 12.5 100 0.0 N 11 13 6 7 1023.2 1023.2 0.2
29/01:00am 12.7 11.5 12.7 100 0.0 N 11 13 6 7 1023.2 1023.2 0.2
29/12:55am 12.5 11.2 12.5 100 0.0 N 11 13 6 7 1023.2 1023.2 0.2
29/12:50am 12.4 11.1 12.4 100 0.0 N 11 13 6 7 1023.0 1023.0 0.2
29/12:30am 12.4 11.4 12.4 100 0.0 N 9 11 5 6 1023.0 1023.0 0.2
29/12:28am 12.3 11.3 12.3 100 0.0 N 9 13 5 7 1022.9 1022.9 0.2
29/12:00am 12.8 12.3 12.8 100 0.0 NNE 7 9 4 5 1023.0 1023.0 0.2
 
Date/Time
EST
Temp
°C
App
Temp
°C
Dew
Point
Rel
Hum
%
Delta-T
°C
Wind Press
QNH
hPa
Press
MSL
hPa
Rain
since 9 am
mm
Dir
 
Spd
km/h
Gust
km/h
Spd
kts
Gust
kts
28/11:30pm 13.2 12.5 13.2 100 0.0 N 9 13 5 7 1023.4 1023.4 0.2
28/11:00pm 13.6 12.3 13.6 100 0.0 NNW 13 15 7 8 1023.4 1023.4 0.2
28/10:30pm 13.6 13.0 13.6 100 0.0 NNE 9 11 5 6 1023.7 1023.7 0.2
28/10:00pm 14.3 13.2 14.3 100 0.0 NNW 13 15 7 8 1024.0 1024.0 0.2
28/09:30pm 14.5 13.1 14.5 100 0.0 NNW 15 17 8 9 1023.7 1023.7 0.2
28/09:00pm 14.5 13.5 14.5 100 0.0 N 13 15 7 8 1024.0 1024.0 0.2
28/08:30pm 15.6 15.4 15.6 100 0.0 N 11 11 6 6 1023.8 1023.8 0.2
28/08:00pm 15.8 15.6 15.8 100 0.0 N 11 13 6 7 1023.3 1023.3 0.2
28/07:30pm 16.0 15.5 16.0 100 0.0 NNW 13 15 7 8 1023.2 1023.2 0.2
28/07:00pm 16.1 16.0 15.9 99 0.1 N 11 13 6 7 1022.9 1022.9 0.2
28/06:30pm 18.6 19.1 18.4 99 0.1 NE 13 19 7 10 1022.9 1022.9 0.2
28/06:00pm 19.0 18.6 18.0 94 0.6 ENE 17 22 9 12 1022.5 1022.5 0.2
28/05:30pm 19.4 18.9 17.7 90 1.0 ENE 17 24 9 13 1022.2 1022.2 0.2
28/05:00pm 20.2 19.8 17.2 83 1.8 ENE 15 24 8 13 1021.9 1021.9 0.2
28/04:30pm 21.1 22.2 14.7 67 3.8 NNW 2 13 1 7 1021.7 1021.7 0.2
28/04:00pm 22.8 23.4 11.8 50 6.2 CALM 0 0 0 0 1021.5 1021.5 0.2
28/03:30pm 23.4 23.8 14.7 58 5.2 N 6 11 3 6 1021.4 1021.4 0.2
28/03:00pm 23.3 24.0 13.5 54 5.7 WSW 2 11 1 6 1021.4 1021.4 0.2
28/02:30pm 23.2 22.7 13.9 56 5.4 N 9 11 5 6 1021.5 1021.5 0.2
28/02:00pm 24.2 24.4 15.7 59 5.1 NW 9 13 5 7 1021.5 1021.5 0.2
28/01:30pm 23.3 22.3 14.6 58 5.1 NW 13 17 7 9 1021.5 1021.5 0.2
28/01:00pm 22.9 22.9 16.2 66 4.0 N 11 15 6 8 1021.9 1021.9 0.2
28/12:30pm 22.4 22.0 15.3 64 4.2 NNW 11 17 6 9 1022.6 1022.6 0.2
28/12:00pm 21.8 23.5 16.1 70 3.4 WNW 2 7 1 4 1023.3 1023.3 0.2
28/11:30am 21.1 21.9 16.3 74 2.9 WSW 7 11 4 6 1024.0 1024.0 0.0
28/11:00am 19.5 19.9 16.2 81 2.0 SW 9 15 5 8 1024.5 1024.5 0.0
28/10:30am 17.8 20.1 17.6 99 0.1 WSW 2 9 1 5 1025.0 1025.0 0.0
28/10:00am 16.4 18.6 16.4 100 0.0 CALM 0 0 0 0 1025.0 1025.0 0.0
28/09:47am 15.9 17.9 15.9 100 0.0 CALM 0 6 0 3 1025.2 1025.2 0.0
28/09:30am 15.4 - - - - CALM 0 6 0 3 1025.1 1025.1 0.0
28/09:05am 14.5 15.9 14.5 100 0.0 CALM 0 0 0 0 1025.3 1025.3 0.0
28/09:00am 13.9 15.1 13.9 100 0.0 CALM 0 0 0 0 1025.2 1025.2 0.0
28/08:42am 13.4 - - - - NE 7 9 4 5 1025.3 1025.3 0.0
28/08:39am 13.4 - - - - NNE 7 9 4 5 1025.3 1025.3 0.0
28/08:30am 12.8 12.0 12.8 100 0.0 N 9 11 5 6 1025.3 1025.3 0.0
28/08:28am 12.8 - - - - N 9 11 5 6 1025.3 1025.3 0.0
28/08:03am 12.0 10.5 12.0 100 0.0 N 11 13 6 7 1024.9 1024.9 0.0
28/08:00am 11.8 10.3 11.8 100 0.0 N 11 13 6 7 1024.9 1024.9 0.0
28/07:32am 11.4 - - - - N 4 11 2 6 1024.3 1024.3 0.0
28/07:30am 11.4 - - - - N 4 11 2 6 1024.3 1024.3 0.0
28/07:00am 10.5 9.0 10.5 100 0.0 N 9 15 5 8 1024.2 1024.2 0.0
28/06:30am 10.6 9.5 10.6 100 0.0 N 7 9 4 5 1024.0 1024.0 0.0
28/06:00am 10.7 9.2 10.7 100 0.0 N 9 11 5 6 1023.7 1023.7 0.0
28/05:30am 10.6 9.5 10.6 100 0.0 N 7 9 4 5 1023.3 1023.3 0.0
28/05:00am 10.8 10.3 10.8 100 0.0 N 4 9 2 5 1023.4 1023.4 0.0
28/04:38am 10.8 9.7 10.8 100 0.0 N 7 9 4 5 1023.3 1023.3 0.0
28/04:37am 10.8 9.7 10.8 100 0.0 N 7 9 4 5 1023.3 1023.3 0.0
28/04:31am 10.8 9.7 10.8 100 0.0 N 7 9 4 5 1023.2 1023.2 0.0
28/04:30am 10.8 9.9 10.8 100 0.0 N 6 9 3 5 1023.2 1023.2 0.0
28/04:29am 10.8 9.9 10.8 100 0.0 NNE 6 9 3 5 1023.2 1023.2 0.0
28/04:26am 10.8 10.3 10.8 100 0.0 NNE 4 9 2 5 1023.2 1023.2 0.0
28/04:24am 10.8 10.7 10.8 100 0.0 NNE 2 9 1 5 1023.2 1023.2 0.0
28/04:23am 10.8 10.7 10.8 100 0.0 NNE 2 9 1 5 1023.2 1023.2 0.0
28/04:19am 10.6 10.8 10.6 100 0.0 CALM 0 0 0 0 1023.2 1023.2 0.0
28/04:00am 10.2 10.3 10.2 100 0.0 CALM 0 0 0 0 1023.4 1023.4 0.0
28/03:30am 10.2 10.3 10.2 100 0.0 CALM 0 0 0 0 1023.4 1023.4 0.0
28/03:28am 10.3 10.4 10.3 100 0.0 CALM 0 0 0 0 1023.4 1023.4 0.0
28/03:27am 10.3 10.4 10.3 100 0.0 CALM 0 0 0 0 1023.4 1023.4 0.0
28/03:00am 10.5 10.7 10.5 100 0.0 CALM 0 0 0 0 1023.1 1023.1 0.0
28/02:30am 11.0 11.3 11.0 100 0.0 CALM 0 0 0 0 1023.0 1023.0 0.0
28/02:00am 11.2 11.6 11.2 100 0.0 CALM 0 0 0 0 1023.3 1023.3 0.0
28/01:30am 11.7 11.5 11.7 100 0.0 NNE 4 7 2 4 1023.1 1023.1 0.0
28/01:03am 11.5 10.3 11.5 100 0.0 N 9 11 5 6 1023.5 1023.5 0.0
28/01:02am 11.6 10.4 11.6 100 0.0 N 9 11 5 6 1023.5 1023.5 0.0
28/01:00am 11.9 10.8 11.9 100 0.0 N 9 11 5 6 1023.5 1023.5 0.0
28/12:54am 12.1 11.4 12.1 100 0.0 NNE 7 11 4 6 1023.5 1023.5 0.0
28/12:36am 12.2 11.2 12.2 100 0.0 N 9 11 5 6 1023.6 1023.6 0.0
28/12:33am 12.1 11.0 12.1 100 0.0 NNE 9 11 5 6 1023.6 1023.6 0.0
28/12:30am 12.1 11.0 12.1 100 0.0 NNE 9 11 5 6 1023.7 1023.7 0.0
28/12:13am 11.9 11.2 11.9 100 0.0 N 7 9 4 5 1023.8 1023.8 0.0
28/12:01am 12.0 11.3 12.0 100 0.0 N 7 11 4 6 1023.8 1023.8 0.0
28/12:00am 12.0 10.9 12.0 100 0.0 N 9 13 5 7 1023.8 1023.8 0.0
 
Date/Time
EST
Temp
°C
App
Temp
°C
Dew
Point
Rel
Hum
%
Delta-T
°C
Wind Press
QNH
hPa
Press
MSL
hPa
Rain
since 9 am
mm
Dir
 
Spd
km/h
Gust
km/h
Spd
kts
Gust
kts
27/11:46pm 12.3 10.9 12.3 100 0.0 N 11 13 6 7 1023.6 1023.6 0.0
27/11:32pm 12.3 10.9 12.3 100 0.0 N 11 13 6 7 1023.7 1023.7 0.0
27/11:30pm 12.3 10.9 12.3 100 0.0 N 11 13 6 7 1023.6 1023.6 0.0
27/11:21pm 12.1 10.7 12.1 100 0.0 N 11 11 6 6 1023.7 1023.7 0.0
27/11:14pm 12.1 11.0 12.1 100 0.0 N 9 11 5 6 1023.8 1023.8 0.0
27/11:00pm 12.6 11.3 12.6 100 0.0 N 11 11 6 6 1023.8 1023.8 0.0
27/10:39pm 12.6 11.3 12.6 100 0.0 N 11 13 6 7 1023.5 1023.5 0.0
27/10:30pm 12.2 10.8 12.2 100 0.0 N 11 11 6 6 1023.5 1023.5 0.0
27/10:00pm 12.9 11.7 12.9 100 0.0 N 11 13 6 7 1023.4 1023.4 0.0
27/09:30pm 12.2 11.6 12.2 100 0.0 N 7 9 4 5 1023.3 1023.3 0.0
27/09:00pm 13.3 12.6 13.3 100 0.0 NNE 9 9 5 5 1023.5 1023.5 0.0
27/08:30pm 14.4 13.7 14.4 100 0.0 N 11 13 6 7 1023.4 1023.4 0.0
27/08:00pm 15.2 15.2 15.2 100 0.0 N 9 9 5 5 1023.4 1023.4 0.0
27/07:30pm 14.6 14.8 14.6 100 0.0 NNW 7 9 4 5 1023.3 1023.3 0.0
27/07:00pm 15.6 15.4 15.6 100 0.0 NNE 11 13 6 7 1023.1 1023.1 0.0
27/06:30pm 14.5 14.2 14.5 100 0.0 N 9 9 5 5 1022.9 1022.9 0.0
27/06:00pm 14.7 16.1 14.5 99 0.1 CALM 0 0 0 0 1022.9 1022.9 0.0
27/05:30pm 15.7 17.0 14.1 90 0.9 CALM 0 0 0 0 1022.8 1022.8 0.0
27/05:00pm 18.6 18.9 14.9 79 2.1 E 7 9 4 5 1022.6 1022.6 0.0
27/04:30pm 19.8 20.1 15.0 74 2.8 ESE 7 13 4 7 1022.2 1022.2 0.0
27/04:00pm 19.6 20.1 15.5 77 2.4 NNE 7 9 4 5 1022.0 1022.0 0.0
27/03:30pm 21.4 21.3 15.0 67 3.8 NNE 9 13 5 7 1021.8 1021.8 0.0
27/03:00pm 21.8 21.8 14.2 62 4.4 NNE 7 13 4 7 1021.8 1021.8 0.0
27/02:30pm 21.5 22.5 14.4 64 4.2 ENE 2 9 1 5 1021.8 1021.8 0.0
27/02:00pm 21.4 22.6 14.8 66 3.9 E 2 9 1 5 1022.2 1022.2 0.0
27/01:30pm 21.3 22.4 14.7 66 3.9 SSE 2 9 1 5 1022.3 1022.3 0.0
27/01:00pm 20.7 21.9 14.8 69 3.4 E 2 7 1 4 1022.9 1022.9 0.0
27/12:30pm 20.5 22.2 16.1 76 2.6 NE 2 6 1 3 1023.4 1023.4 0.0
27/12:00pm 20.0 20.1 13.9 68 3.5 NW 6 9 3 5 1024.0 1024.0 0.0
27/11:30am 20.0 20.2 14.6 71 3.1 SSW 7 11 4 6 1024.6 1024.6 0.0
27/11:00am 19.1 19.3 14.6 75 2.6 WSW 7 13 4 7 1025.1 1025.1 0.0
27/10:30am 18.7 18.9 16.7 88 1.2 SW 11 17 6 9 1025.7 1025.7 0.0
27/10:00am 17.1 16.5 14.6 85 1.4 SW 11 13 6 7 1025.8 1025.8 0.0
27/09:30am 16.1 17.5 15.5 96 0.3 WNW 2 9 1 5 1026.0 1026.0 0.0
27/09:00am 15.3 16.7 15.3 100 0.0 WNW 2 7 1 4 1026.1 1026.1 0.0
27/08:30am 14.1 13.3 14.1 100 0.0 N 11 13 6 7 1025.7 1025.7 0.0
27/08:00am 13.0 - - - - CALM 0 0 0 0 1025.3 1025.3 0.0
27/07:38am 12.4 12.7 12.3 99 0.1 NNW 2 9 1 5 1025.4 1025.4 0.0
27/07:30am 12.1 - - - - NNW 7 9 4 5 1025.4 1025.4 0.0
27/07:24am 12.0 11.3 12.0 100 0.0 N 7 9 4 5 1025.5 1025.5 0.0
27/07:00am 11.6 11.3 11.6 100 0.0 N 4 13 2 7 1025.5 1025.5 0.0
27/06:51am 11.5 11.9 11.4 99 0.1 CALM 0 0 0 0 1025.3 1025.3 0.0
27/06:30am 10.6 9.5 10.6 100 0.0 WNW 7 9 4 5 1024.8 1024.8 0.0
27/06:12am 10.9 9.9 10.9 100 0.0 N 7 9 4 5 1024.7 1024.7 0.0
27/06:04am 11.0 9.6 11.0 100 0.0 N 9 11 5 6 1024.5 1024.5 0.0
27/06:00am 11.1 9.8 11.1 100 0.0 N 9 11 5 6 1024.5 1024.5 0.0
27/05:37am 11.5 10.6 11.5 100 0.0 N 7 9 4 5 1024.7 1024.7 0.0
27/05:30am 11.5 10.3 11.5 100 0.0 NNW 9 11 5 6 1024.7 1024.7 0.0
27/05:21am 11.5 10.8 11.5 100 0.0 NNW 6 9 3 5 1024.7 1024.7 0.0
27/05:15am 11.4 10.7 11.4 100 0.0 NNW 6 9 3 5 1024.6 1024.6 0.0
27/05:12am 11.4 11.1 11.4 100 0.0 NNW 4 9 2 5 1024.6 1024.6 0.0
27/05:00am 11.4 11.8 11.4 100 0.0 CALM 0 0 0 0 1024.4 1024.4 0.0
27/04:30am 11.2 11.6 11.2 100 0.0 CALM 0 0 0 0 1024.4 1024.4 0.0
27/04:00am 11.1 11.5 11.1 100 0.0 CALM 0 0 0 0 1024.3 1024.3 0.0
27/03:46am 11.5 12.0 11.5 100 0.0 CALM 0 0 0 0 1024.3 1024.3 0.0
27/03:45am 11.5 12.0 11.5 100 0.0 CALM 0 0 0 0 1024.3 1024.3 0.0
27/03:41am 11.7 12.2 11.7 100 0.0 CALM 0 0 0 0 1024.4 1024.4 0.0
27/03:40am 11.7 12.2 11.7 100 0.0 CALM 0 0 0 0 1024.5 1024.5 0.0
27/03:39am 11.7 12.2 11.7 100 0.0 CALM 0 0 0 0 1024.5 1024.5 0.0
27/03:30am 11.3 11.0 11.3 100 0.0 NW 4 7 2 4 1024.5 1024.5 0.0
27/03:20am 12.0 10.9 12.0 100 0.0 NNW 9 11 5 6 1024.5 1024.5 0.0
27/03:00am 12.3 11.3 12.3 100 0.0 N 9 13 5 7 1024.5 1024.5 0.0
27/02:30am 12.6 10.9 12.6 100 0.0 NNW 13 15 7 8 1024.6 1024.6 0.0
27/02:00am 11.9 11.4 11.9 100 0.0 N 6 9 3 5 1024.8 1024.8 0.0
27/01:35am 11.8 10.7 11.8 100 0.0 N 9 13 5 7 1024.8 1024.8 0.0
27/01:33am 12.0 10.5 12.0 100 0.0 N 11 13 6 7 1024.8 1024.8 0.0
27/01:30am 12.1 10.7 12.1 100 0.0 N 11 13 6 7 1024.8 1024.8 0.0
27/01:11am 11.6 12.1 11.6 100 0.0 CALM 0 0 0 0 1024.6 1024.6 0.0
27/01:00am 11.9 12.5 11.9 100 0.0 CALM 0 0 0 0 1024.6 1024.6 0.0
27/12:50am 12.8 13.7 12.8 100 0.0 CALM 0 0 0 0 1024.7 1024.7 0.0
27/12:46am 12.7 13.5 12.7 100 0.0 CALM 0 0 0 0 1024.8 1024.8 0.0
27/12:30am 12.6 13.4 12.6 100 0.0 CALM 0 0 0 0 1024.8 1024.8 0.0
27/12:00am 13.5 13.3 13.5 100 0.0 NNE 7 9 4 5 1025.1 1025.1 0.0
 
Date/Time
EST
Temp
°C
App
Temp
°C
Dew
Point
Rel
Hum
%
Delta-T
°C
Wind Press
QNH
hPa
Press
MSL
hPa
Rain
since 9 am
mm
Dir
 
Spd
km/h
Gust
km/h
Spd
kts
Gust
kts
26/11:30pm 13.8 13.9 13.8 100 0.0 NNE 6 11 3 6 1025.3 1025.3 0.0
26/11:00pm 14.0 15.3 14.0 100 0.0 CALM 0 0 0 0 1025.6 1025.6 0.0
26/10:30pm 14.6 14.4 14.6 100 0.0 N 9 13 5 7 1025.6 1025.6 0.0
26/10:00pm 14.4 13.7 14.4 100 0.0 N 11 13 6 7 1025.7 1025.7 0.0
26/09:30pm 14.4 14.1 14.4 100 0.0 N 9 11 5 6 1025.7 1025.7 0.0
26/09:00pm 14.3 14.0 14.3 100 0.0 N 9 13 5 7 1025.9 1025.9 0.0
26/08:30pm 15.1 16.4 15.1 100 0.0 NNE 2 6 1 3 1025.6 1025.6 0.0
26/08:00pm 14.8 15.2 14.8 100 0.0 N 6 9 3 5 1025.8 1025.8 0.0
26/07:30pm 14.9 15.2 14.9 100 0.0 N 7 9 4 5 1025.9 1025.9 0.0
26/07:00pm 15.4 17.1 15.2 99 0.1 CALM 0 0 0 0 1025.9 1025.9 0.0
26/06:30pm 16.0 16.8 15.8 99 0.1 SSE 6 7 3 4 1025.7 1025.7 0.0
26/06:00pm 16.3 17.2 16.1 99 0.1 SSW 6 7 3 4 1025.8 1025.8 0.0
26/05:30pm 16.8 18.9 16.3 97 0.3 CALM 0 0 0 0 1025.3 1025.3 0.0
26/05:00pm 18.2 20.0 15.6 85 1.5 CALM 0 0 0 0 1024.7 1024.7 0.0
26/04:30pm 18.6 18.7 15.5 82 1.8 SE 9 11 5 6 1024.7 1024.7 0.0
26/04:00pm 19.9 19.6 14.5 71 3.1 SSE 9 11 5 6 1024.8 1024.8 0.0
26/03:30pm 20.3 20.2 14.0 67 3.6 S 7 9 4 5 1025.0 1025.0 0.0
26/03:00pm 20.5 19.7 13.9 66 3.8 SSE 11 13 6 7 1024.8 1024.8 0.0
26/02:30pm 20.7 20.1 13.4 63 4.2 S 9 11 5 6 1025.3 1025.3 0.0
26/02:00pm 20.9 20.8 13.4 62 4.3 S 6 15 3 8 1025.5 1025.5 0.0
26/01:30pm 20.5 21.6 13.5 64 4.0 CALM 0 0 0 0 1025.7 1025.7 0.0
26/01:00pm 20.4 20.2 13.1 63 4.1 SSE 6 13 3 7 1025.9 1025.9 0.0
26/12:30pm 20.7 20.3 14.1 66 3.8 SSW 9 15 5 8 1026.4 1026.4 0.0
26/12:00pm 20.2 20.2 14.3 69 3.4 WSW 7 13 4 7 1027.1 1027.1 0.0
26/11:30am 19.4 19.3 14.0 71 3.1 WSW 7 11 4 6 1027.7 1027.7 0.0
26/11:00am 19.5 20.0 13.9 70 3.2 WSW 4 11 2 6 1028.1 1028.1 0.0
26/10:30am 18.9 17.9 14.6 76 2.5 WSW 13 15 7 8 1028.8 1028.8 0.0
26/10:00am 17.9 17.4 14.8 82 1.8 SW 11 17 6 9 1028.9 1028.9 0.0
26/09:30am 16.2 17.7 15.6 96 0.3 NE 2 7 1 4 1029.2 1029.2 0.0
26/09:00am 14.6 14.4 14.6 100 0.0 NNW 9 11 5 6 1029.1 1029.1 0.2
26/08:30am 13.4 11.9 13.2 99 0.1 N 13 15 7 8 1029.1 1029.1 0.2
26/08:00am 12.8 - - - - CALM 0 0 0 0 1029.0 1029.0 0.2
26/07:30am 11.4 10.1 11.4 100 0.0 NNE 9 13 5 7 1029.1 1029.1 0.2
26/07:00am 11.0 10.2 11.0 100 0.0 NNE 6 13 3 7 1029.0 1029.0 0.2
26/06:51am 10.6 9.7 10.6 100 0.0 NNE 6 9 3 5 1028.8 1028.8 0.2
26/06:32am 10.6 9.5 10.6 100 0.0 N 7 11 4 6 1028.9 1028.9 0.2
26/06:30am 10.6 9.5 10.6 100 0.0 N 7 11 4 6 1028.9 1028.9 0.2
26/06:20am 10.7 9.2 10.7 100 0.0 NNE 9 11 5 6 1028.9 1028.9 0.2

Other Formats:

Comma delimited format used in spreadsheet applications
http://www.bom.gov.au/fwo/IDN60801/IDN60801.94572.axf

JavaScript Object Notation format (JSON) in row-major order
http://www.bom.gov.au/fwo/IDN60801/IDN60801.94572.json